createdAt,value
2019-05-23T00:00:29.313Z,18.75
2019-05-23T00:03:19.721Z,18.77
2019-05-23T00:06:12.582Z,18.75
2019-05-23T00:09:02.334Z,18.71
2019-05-23T00:11:53.197Z,18.69
2019-05-23T00:14:37.919Z,18.71
2019-05-23T00:17:11.455Z,18.73
2019-05-23T00:19:43.645Z,18.71
2019-05-23T00:22:14.839Z,18.69
2019-05-23T00:24:47.773Z,18.63
2019-05-23T00:27:20.651Z,18.63
2019-05-23T00:29:51.870Z,18.62
2019-05-23T00:32:24.461Z,18.64
2019-05-23T00:34:56.400Z,18.61
2019-05-23T00:37:27.534Z,18.57
2019-05-23T00:39:58.699Z,18.58
2019-05-23T00:42:29.834Z,18.60
2019-05-23T00:45:01.037Z,18.60
2019-05-23T00:47:33.166Z,18.63
2019-05-23T00:50:06.408Z,18.64
2019-05-23T00:52:37.422Z,18.63
2019-05-23T00:55:10.182Z,18.66
2019-05-23T00:57:41.772Z,18.66
2019-05-23T01:00:15.137Z,18.66
2019-05-23T01:02:46.640Z,18.66
2019-05-23T01:05:18.874Z,18.67
2019-05-23T01:07:50.452Z,18.67
2019-05-23T01:10:23.077Z,18.67
2019-05-23T01:12:54.159Z,18.65
2019-05-23T01:15:25.822Z,18.66
2019-05-23T01:17:57.287Z,18.62
2019-05-23T01:20:38.986Z,18.59
2019-05-23T01:23:11.599Z,18.55
2019-05-23T01:25:42.661Z,18.55
2019-05-23T01:28:14.341Z,18.54
2019-05-23T01:30:46.969Z,18.56
2019-05-23T01:33:19.250Z,18.54
2019-05-23T01:35:50.687Z,18.52
2019-05-23T01:38:23.058Z,18.50
2019-05-23T01:40:54.148Z,18.51
2019-05-23T01:43:25.725Z,18.52
2019-05-23T01:45:56.846Z,18.53
2019-05-23T01:48:27.871Z,18.51
2019-05-23T01:50:58.866Z,18.54
2019-05-23T01:53:29.882Z,18.55
2019-05-23T01:56:01.198Z,18.55
2019-05-23T01:58:32.778Z,18.57
2019-05-23T02:01:04.413Z,18.56
2019-05-23T02:03:36.149Z,18.56
2019-05-23T02:06:07.325Z,18.54
2019-05-23T02:08:38.564Z,18.54
2019-05-23T02:11:09.761Z,18.55
2019-05-23T02:13:40.932Z,18.55
2019-05-23T02:16:12.010Z,18.52
2019-05-23T02:18:45.242Z,18.53
2019-05-23T02:21:17.898Z,18.54
2019-05-23T02:23:49.430Z,18.54
2019-05-23T02:26:22.654Z,18.52
2019-05-23T02:28:54.342Z,18.53
2019-05-23T02:31:25.691Z,18.50
2019-05-23T02:33:56.995Z,18.50
2019-05-23T02:36:28.363Z,18.52
2019-05-23T02:39:17.347Z,18.55
2019-05-23T02:41:53.268Z,18.56
2019-05-23T02:44:29.504Z,18.56
2019-05-23T02:47:18.795Z,18.58
2019-05-23T02:49:51.260Z,18.57
2019-05-23T02:52:28.918Z,18.56
2019-05-23T02:55:01.327Z,18.54
2019-05-23T02:57:32.785Z,18.56
2019-05-23T03:00:26.713Z,18.59
2019-05-23T03:02:59.592Z,18.62
2019-05-23T03:05:30.760Z,18.60
2019-05-23T03:08:01.825Z,18.62
2019-05-23T03:10:57.961Z,18.59
2019-05-23T03:13:32.817Z,18.60
2019-05-23T03:16:04.108Z,18.62
2019-05-23T03:18:40.276Z,18.61
2019-05-23T03:21:13.509Z,18.58
2019-05-23T03:23:44.736Z,18.62
2019-05-23T03:26:34.960Z,18.64
2019-05-23T03:29:06.805Z,18.64
2019-05-23T03:31:48.994Z,18.66
2019-05-23T03:34:21.873Z,18.67
2019-05-23T03:36:53.160Z,18.70
2019-05-23T03:39:24.464Z,18.70
2019-05-23T03:41:57.296Z,18.72
2019-05-23T03:44:29.820Z,18.74
2019-05-23T03:47:01.801Z,18.79
2019-05-23T03:49:34.062Z,18.84
2019-05-23T03:52:05.695Z,18.86
2019-05-23T03:54:36.939Z,18.92
2019-05-23T03:57:09.024Z,18.98
2019-05-23T03:59:42.778Z,19.04
2019-05-23T04:02:15.501Z,19.11
2019-05-23T04:04:47.266Z,19.26
2019-05-23T04:07:19.129Z,19.26
2019-05-23T04:09:50.794Z,19.36
2019-05-23T04:12:22.564Z,19.52
2019-05-23T04:14:54.024Z,19.71
2019-05-23T04:17:25.333Z,19.84
2019-05-23T04:19:59.113Z,19.79
2019-05-23T04:22:31.555Z,19.79
2019-05-23T04:25:03.094Z,19.87
2019-05-23T04:27:34.611Z,19.90
2019-05-23T04:30:07.840Z,19.80
2019-05-23T04:32:39.734Z,19.94
2019-05-23T04:35:10.951Z,19.99
2019-05-23T04:37:42.485Z,20.04
2019-05-23T04:40:13.726Z,20.07
2019-05-23T04:42:44.832Z,20.10
2019-05-23T04:45:17.209Z,20.14
2019-05-23T04:47:49.189Z,20.18
2019-05-23T04:50:21.461Z,20.27
2019-05-23T04:52:53.060Z,20.37
2019-05-23T04:55:24.242Z,20.43
2019-05-23T04:57:55.897Z,20.43
2019-05-23T05:00:27.617Z,20.39
2019-05-23T05:02:59.103Z,20.35
2019-05-23T05:05:31.153Z,20.29
2019-05-23T05:08:02.240Z,20.23
2019-05-23T05:10:34.848Z,20.17
2019-05-23T05:13:06.301Z,20.12
2019-05-23T05:15:37.722Z,20.07
2019-05-23T05:18:08.824Z,20.05
2019-05-23T05:20:40.596Z,20.06
2019-05-23T05:23:11.789Z,20.12
2019-05-23T05:25:43.108Z,20.24
2019-05-23T05:28:14.247Z,20.36
2019-05-23T05:30:45.873Z,20.49
2019-05-23T05:33:17.188Z,20.60
2019-05-23T05:35:48.862Z,20.73
2019-05-23T05:38:20.647Z,20.91
2019-05-23T05:40:52.511Z,21.07
2019-05-23T05:43:23.662Z,21.21
2019-05-23T05:45:55.265Z,21.30
2019-05-23T05:48:27.366Z,21.41
2019-05-23T05:50:59.648Z,21.45
2019-05-23T05:53:30.720Z,21.48
2019-05-23T05:56:01.781Z,21.58
2019-05-23T05:58:32.861Z,21.71
2019-05-23T06:01:07.011Z,21.82
2019-05-23T06:03:38.106Z,21.87
2019-05-23T06:06:10.833Z,21.89
2019-05-23T06:08:43.503Z,21.91
2019-05-23T06:11:16.378Z,21.97
2019-05-23T06:13:47.683Z,22.01
2019-05-23T06:16:18.859Z,22.04
2019-05-23T06:18:49.887Z,22.08
2019-05-23T06:21:22.752Z,22.10
2019-05-23T06:23:55.065Z,22.10
2019-05-23T06:26:26.753Z,22.08
2019-05-23T06:28:58.032Z,22.10
2019-05-23T06:31:29.865Z,22.14
2019-05-23T06:34:02.266Z,22.17
2019-05-23T06:36:34.149Z,22.20
2019-05-23T06:39:07.858Z,22.28
2019-05-23T06:41:39.124Z,22.29
2019-05-23T06:44:10.125Z,22.30
2019-05-23T06:46:41.540Z,22.26
2019-05-23T06:49:12.635Z,22.22
2019-05-23T06:51:43.725Z,22.14
2019-05-23T06:54:17.849Z,22.07
2019-05-23T06:56:48.827Z,22.05
2019-05-23T06:59:19.964Z,22.10
2019-05-23T07:01:51.173Z,22.17
2019-05-23T07:04:23.051Z,22.22
2019-05-23T07:06:54.169Z,22.32
2019-05-23T07:09:26.096Z,22.42
2019-05-23T07:11:58.911Z,22.73
2019-05-23T07:14:30.862Z,23.22
2019-05-23T07:17:02.094Z,23.77
2019-05-23T07:19:34.978Z,24.23
2019-05-23T07:22:06.851Z,24.57
2019-05-23T07:24:38.100Z,24.67
2019-05-23T07:27:09.430Z,24.68
2019-05-23T07:29:41.570Z,24.62
2019-05-23T07:32:13.009Z,24.66
2019-05-23T07:34:44.056Z,24.95
2019-05-23T07:37:15.610Z,25.36
2019-05-23T07:39:46.563Z,25.83
2019-05-23T07:42:18.496Z,26.14
2019-05-23T07:44:52.386Z,26.40
2019-05-23T07:47:23.619Z,26.54
2019-05-23T07:49:54.721Z,26.74
2019-05-23T07:52:25.926Z,26.79
2019-05-23T07:54:58.663Z,26.85
2019-05-23T07:57:29.634Z,26.74
2019-05-23T08:00:01.311Z,26.56
2019-05-23T08:02:34.101Z,26.53
2019-05-23T08:05:07.384Z,26.53
2019-05-23T08:07:38.924Z,26.54
2019-05-23T08:10:10.059Z,26.46
2019-05-23T08:12:41.490Z,26.50
2019-05-23T08:15:13.050Z,26.42
2019-05-23T08:17:44.223Z,26.29
2019-05-23T08:20:16.273Z,26.19
2019-05-23T08:22:51.501Z,26.13
2019-05-23T08:25:22.595Z,25.94
2019-05-23T08:27:53.634Z,25.85
2019-05-23T08:30:24.716Z,25.80
2019-05-23T08:32:56.466Z,25.68
2019-05-23T08:35:27.476Z,25.63
2019-05-23T08:37:59.082Z,25.57
2019-05-23T08:40:31.013Z,25.50
2019-05-23T08:43:02.797Z,25.48
2019-05-23T08:45:33.859Z,25.46
2019-05-23T08:48:06.456Z,25.43
2019-05-23T08:50:37.608Z,25.24
2019-05-23T08:53:09.519Z,25.20
2019-05-23T08:55:40.891Z,25.27
2019-05-23T08:58:12.261Z,25.30
2019-05-23T09:00:43.464Z,25.29
2019-05-23T09:03:15.190Z,25.36
2019-05-23T09:05:47.877Z,25.41
2019-05-23T09:08:20.149Z,25.28
2019-05-23T09:10:51.245Z,25.27
2019-05-23T09:13:24.316Z,25.30
2019-05-23T09:15:55.478Z,25.34
2019-05-23T09:18:26.601Z,25.40
2019-05-23T09:20:57.755Z,25.44
2019-05-23T09:23:29.175Z,25.47
2019-05-23T09:26:00.317Z,25.47
2019-05-23T09:28:31.418Z,25.52
2019-05-23T09:31:03.175Z,25.57
2019-05-23T09:33:36.159Z,25.57
2019-05-23T09:36:07.665Z,25.54
2019-05-23T09:38:38.832Z,25.34
2019-05-23T09:41:09.938Z,25.28
2019-05-23T09:43:41.127Z,25.15
2019-05-23T09:46:12.227Z,25.14
2019-05-23T09:48:43.334Z,25.17
2019-05-23T09:51:14.435Z,25.17
2019-05-23T09:53:47.510Z,25.17
2019-05-23T09:56:18.576Z,25.20
2019-05-23T09:58:49.645Z,25.19
2019-05-23T10:01:20.992Z,25.15
2019-05-23T10:03:52.236Z,25.16
2019-05-23T10:06:23.490Z,25.14
2019-05-23T10:08:55.467Z,25.13
2019-05-23T10:11:26.516Z,25.13
2019-05-23T10:13:57.817Z,25.12
2019-05-23T10:16:29.887Z,25.11
2019-05-23T10:19:01.236Z,25.13
2019-05-23T10:21:32.470Z,25.12
2019-05-23T10:24:05.149Z,25.13
2019-05-23T10:26:37.402Z,25.18
2019-05-23T10:29:08.561Z,25.21
2019-05-23T10:31:39.737Z,25.26
2019-05-23T10:34:10.880Z,25.30
2019-05-23T10:36:43.079Z,25.32
2019-05-23T10:39:14.300Z,25.37
2019-05-23T10:41:45.362Z,25.40
2019-05-23T10:44:16.930Z,25.43
2019-05-23T10:46:48.014Z,25.44
2019-05-23T10:49:19.548Z,25.48
2019-05-23T10:51:50.555Z,25.50
2019-05-23T10:54:21.725Z,25.50
2019-05-23T10:56:52.711Z,25.50
2019-05-23T10:59:24.043Z,25.52
2019-05-23T11:01:55.651Z,25.54
2019-05-23T11:04:27.127Z,25.53
2019-05-23T11:06:58.459Z,25.54
2019-05-23T11:09:38.041Z,25.55
2019-05-23T11:12:02.322Z,25.55
2019-05-23T11:14:33.543Z,25.59
2019-05-23T11:17:06.240Z,25.60
2019-05-23T11:19:37.852Z,25.63
2019-05-23T11:22:09.761Z,25.68
2019-05-23T11:24:41.079Z,25.68
2019-05-23T11:27:12.463Z,25.70
2019-05-23T11:29:43.646Z,25.75
2019-05-23T11:32:19.787Z,25.78
2019-05-23T11:34:48.747Z,25.78
2019-05-23T11:37:20.004Z,25.78
2019-05-23T11:39:51.628Z,25.79
2019-05-23T11:42:22.987Z,25.81
2019-05-23T11:44:54.156Z,25.80
2019-05-23T11:47:26.331Z,25.78
2019-05-23T11:49:57.563Z,25.78
2019-05-23T11:52:28.727Z,25.77
2019-05-23T11:55:01.389Z,25.80
2019-05-23T11:57:37.080Z,25.83
2019-05-23T12:00:09.286Z,25.84
2019-05-23T12:02:42.031Z,25.86
2019-05-23T12:05:14.882Z,25.77
2019-05-23T12:07:46.017Z,25.75
2019-05-23T12:10:17.894Z,25.64
2019-05-23T12:12:49.080Z,25.59
2019-05-23T12:15:21.916Z,25.60
2019-05-23T12:17:53.135Z,25.60
2019-05-23T12:20:24.365Z,25.66
2019-05-23T12:22:55.846Z,25.71
2019-05-23T12:25:28.406Z,25.77
2019-05-23T12:28:00.215Z,25.85
2019-05-23T12:30:31.732Z,25.89
2019-05-23T12:33:03.125Z,25.91
2019-05-23T12:35:34.451Z,25.93
2019-05-23T12:38:05.924Z,25.88
2019-05-23T12:40:37.123Z,25.81
2019-05-23T12:43:08.254Z,25.81
2019-05-23T12:45:39.480Z,25.83
2019-05-23T12:48:18.004Z,25.83
2019-05-23T12:50:53.943Z,25.83
2019-05-23T12:53:23.619Z,25.85
2019-05-23T12:55:54.706Z,25.89
2019-05-23T12:58:25.785Z,25.93
2019-05-23T13:00:58.530Z,25.98
2019-05-23T13:03:29.830Z,26.00
2019-05-23T13:06:00.883Z,25.99
2019-05-23T13:08:32.045Z,26.02
2019-05-23T13:11:03.156Z,26.03
2019-05-23T13:13:34.349Z,25.99
2019-05-23T13:16:05.593Z,25.90
2019-05-23T13:18:36.847Z,25.84
2019-05-23T13:21:07.933Z,25.82
2019-05-23T13:23:39.373Z,25.86
2019-05-23T13:26:10.914Z,25.86
2019-05-23T13:28:42.061Z,25.86
2019-05-23T13:31:13.082Z,25.88
2019-05-23T13:33:44.167Z,25.90
2019-05-23T13:36:15.304Z,25.89
2019-05-23T13:38:46.629Z,25.86
2019-05-23T13:41:17.735Z,25.88
2019-05-23T13:43:48.819Z,25.67
2019-05-23T13:46:20.000Z,25.40
2019-05-23T13:48:51.205Z,25.13
2019-05-23T13:51:22.448Z,24.91
2019-05-23T13:53:53.596Z,24.81
2019-05-23T13:56:24.943Z,24.62
2019-05-23T13:58:57.634Z,24.66
2019-05-23T14:01:30.432Z,24.68
2019-05-23T14:04:03.109Z,24.78
2019-05-23T14:06:34.467Z,24.92
2019-05-23T14:09:06.947Z,25.06
2019-05-23T14:11:38.709Z,25.20
2019-05-23T14:14:10.747Z,25.32
2019-05-23T14:16:46.925Z,25.43
2019-05-23T14:19:18.255Z,25.49
2019-05-23T14:21:49.499Z,25.51
2019-05-23T14:24:20.712Z,25.47
2019-05-23T14:26:59.903Z,25.45
2019-05-23T14:29:31.969Z,25.40
2019-05-23T14:32:08.516Z,25.47
2019-05-23T14:34:40.488Z,25.50
2019-05-23T14:37:14.273Z,25.54
2019-05-23T14:39:47.050Z,25.58
2019-05-23T14:42:20.926Z,25.57
2019-05-23T14:44:54.518Z,25.61
2019-05-23T14:47:30.981Z,25.55
2019-05-23T14:50:22.710Z,25.50
2019-05-23T14:52:56.260Z,25.47
2019-05-23T14:55:28.388Z,25.45
2019-05-23T14:58:00.917Z,25.30
2019-05-23T15:00:33.155Z,25.24
2019-05-23T15:03:05.377Z,25.25
2019-05-23T15:05:38.018Z,25.13
2019-05-23T15:08:10.169Z,25.14
2019-05-23T15:10:42.396Z,25.23
2019-05-23T15:13:14.803Z,25.36
2019-05-23T15:15:46.737Z,25.46
2019-05-23T15:18:19.075Z,25.52
2019-05-23T15:20:51.138Z,25.56
2019-05-23T15:23:24.326Z,25.52
2019-05-23T15:25:56.629Z,25.56
2019-05-23T15:28:28.861Z,25.56
2019-05-23T15:31:01.161Z,25.31
2019-05-23T15:33:33.354Z,25.26
2019-05-23T15:36:05.721Z,25.25
2019-05-23T15:38:37.979Z,25.11
2019-05-23T15:41:10.277Z,25.05
2019-05-23T15:43:42.469Z,24.88
2019-05-23T15:46:16.996Z,24.73
2019-05-23T15:48:49.043Z,24.70
2019-05-23T15:51:22.804Z,24.87
2019-05-23T15:54:08.617Z,24.92
2019-05-23T15:56:48.475Z,24.85
2019-05-23T15:59:22.052Z,24.90
2019-05-23T16:01:58.649Z,24.90
2019-05-23T16:04:30.858Z,24.84
2019-05-23T16:07:04.063Z,24.61
2019-05-23T16:09:38.850Z,24.44
2019-05-23T16:12:12.173Z,24.44
2019-05-23T16:14:44.659Z,24.50
2019-05-23T16:17:16.624Z,24.56
2019-05-23T16:19:49.695Z,24.66
2019-05-23T16:22:21.870Z,24.77
2019-05-23T16:24:53.825Z,24.80
2019-05-23T16:27:25.824Z,24.83
2019-05-23T16:30:00.792Z,24.91
2019-05-23T16:32:36.384Z,24.86
2019-05-23T16:35:08.200Z,24.73
2019-05-23T16:37:42.692Z,24.55
2019-05-23T16:40:14.537Z,24.41
2019-05-23T16:42:46.423Z,24.27
2019-05-23T16:45:18.257Z,24.17
2019-05-23T16:47:50.533Z,24.08
2019-05-23T16:50:22.529Z,24.00
2019-05-23T16:52:54.290Z,23.95
2019-05-23T16:55:39.471Z,23.87
2019-05-23T16:58:15.556Z,23.83
2019-05-23T17:01:04.753Z,23.73
2019-05-23T17:03:51.332Z,23.67
2019-05-23T17:06:27.287Z,23.61
2019-05-23T17:09:06.675Z,23.53
2019-05-23T17:11:44.087Z,23.48
2019-05-23T17:14:29.715Z,23.41
2019-05-23T17:17:38.095Z,23.35
2019-05-23T17:20:19.150Z,23.31
2019-05-23T17:22:42.458Z,23.26
2019-05-23T17:25:25.788Z,23.21
2019-05-23T17:28:08.049Z,23.16
2019-05-23T17:30:44.112Z,23.13
2019-05-23T17:33:16.325Z,23.08
2019-05-23T17:35:48.407Z,23.03
2019-05-23T17:38:20.819Z,22.96
2019-05-23T17:40:52.842Z,22.93
2019-05-23T17:43:26.306Z,22.90
2019-05-23T17:45:59.137Z,22.86
2019-05-23T17:48:31.217Z,22.81
2019-05-23T17:51:03.809Z,22.77
2019-05-23T17:53:36.517Z,22.72
2019-05-23T17:56:08.785Z,22.69
2019-05-23T17:58:41.260Z,22.65
2019-05-23T18:01:13.576Z,22.59
2019-05-23T18:03:45.728Z,22.55
2019-05-23T18:06:17.591Z,22.50
2019-05-23T18:08:50.796Z,22.45
2019-05-23T18:11:23.212Z,22.40
2019-05-23T18:13:55.663Z,22.36
2019-05-23T18:16:27.932Z,22.33
2019-05-23T18:18:59.856Z,22.30
2019-05-23T18:21:31.961Z,22.27
2019-05-23T18:24:04.584Z,22.24
2019-05-23T18:26:36.809Z,22.22
2019-05-23T18:29:10.041Z,22.19
2019-05-23T18:31:42.864Z,22.16
2019-05-23T18:34:15.899Z,22.13
2019-05-23T18:36:48.626Z,22.09
2019-05-23T18:39:22.125Z,22.06
2019-05-23T18:41:54.157Z,22.03
2019-05-23T18:44:26.414Z,21.99
2019-05-23T18:47:00.194Z,21.94
2019-05-23T18:49:32.428Z,21.90
2019-05-23T18:52:04.713Z,21.86
2019-05-23T18:54:37.567Z,21.82
2019-05-23T18:57:11.070Z,21.78
2019-05-23T18:59:44.682Z,21.73
2019-05-23T19:02:18.579Z,21.69
2019-05-23T19:04:53.158Z,21.67
2019-05-23T19:07:29.389Z,21.64
2019-05-23T19:10:05.796Z,21.63
2019-05-23T19:12:42.745Z,21.61
2019-05-23T19:15:14.882Z,21.59
2019-05-23T19:17:47.246Z,21.58
2019-05-23T19:20:21.057Z,21.54
2019-05-23T19:22:53.920Z,21.51
2019-05-23T19:25:26.544Z,21.48
2019-05-23T19:27:59.515Z,21.44
2019-05-23T19:30:37.630Z,21.40
2019-05-23T19:33:11.843Z,21.37
2019-05-23T19:35:53.870Z,21.35
2019-05-23T19:38:30.776Z,21.34
2019-05-23T19:41:05.804Z,21.32
2019-05-23T19:43:47.918Z,21.30
2019-05-23T19:46:19.410Z,21.28
2019-05-23T19:48:53.522Z,21.27
2019-05-23T19:51:36.686Z,21.26
2019-05-23T19:54:13.419Z,21.26
2019-05-23T19:56:48.663Z,21.26
2019-05-23T19:59:22.972Z,21.24
2019-05-23T20:02:07.227Z,21.24
2019-05-23T20:04:51.369Z,21.22
2019-05-23T20:07:25.247Z,21.20
2019-05-23T20:10:00.523Z,21.17
2019-05-23T20:12:34.739Z,21.13
2019-05-23T20:15:09.458Z,21.09
2019-05-23T20:17:43.740Z,21.07
2019-05-23T20:20:17.791Z,21.05
2019-05-23T20:22:51.492Z,21.00
2019-05-23T20:25:26.314Z,20.93
2019-05-23T20:27:59.725Z,20.86
2019-05-23T20:30:45.980Z,20.80
2019-05-23T20:33:18.583Z,20.77
2019-05-23T20:35:50.973Z,20.69
2019-05-23T20:38:24.944Z,20.68
2019-05-23T20:40:56.977Z,20.66
2019-05-23T20:43:29.351Z,20.62
2019-05-23T20:46:01.434Z,20.58
2019-05-23T20:48:33.570Z,20.54
2019-05-23T20:51:06.389Z,20.53
2019-05-23T20:53:38.310Z,20.51
2019-05-23T20:56:10.272Z,20.50
2019-05-23T20:58:43.325Z,20.48
2019-05-23T21:01:16.881Z,20.45
2019-05-23T21:03:49.389Z,20.42
2019-05-23T21:06:21.364Z,20.40
2019-05-23T21:08:53.379Z,20.38
2019-05-23T21:11:25.652Z,20.38
2019-05-23T21:13:57.669Z,20.37
2019-05-23T21:16:29.556Z,20.35
2019-05-23T21:19:01.713Z,20.35
2019-05-23T21:21:33.639Z,20.35
2019-05-23T21:24:05.873Z,20.36
2019-05-23T21:26:38.125Z,20.35
2019-05-23T21:29:10.202Z,20.37
2019-05-23T21:31:42.125Z,20.36
2019-05-23T21:34:14.018Z,20.36
2019-05-23T21:36:46.024Z,20.36
2019-05-23T21:39:17.954Z,20.36
2019-05-23T21:41:49.905Z,20.36
2019-05-23T21:44:21.968Z,20.35
2019-05-23T21:46:53.929Z,20.35
2019-05-23T21:49:26.415Z,20.33
2019-05-23T21:51:58.630Z,20.33
2019-05-23T21:54:30.823Z,20.33
2019-05-23T21:57:02.979Z,20.31
2019-05-23T21:59:36.213Z,20.32
2019-05-23T22:02:13.661Z,20.30
2019-05-23T22:04:47.213Z,20.28
2019-05-23T22:07:19.453Z,20.24
2019-05-23T22:09:51.471Z,20.23
2019-05-23T22:12:23.407Z,20.21
2019-05-23T22:14:55.793Z,20.20
2019-05-23T22:17:27.798Z,20.19
2019-05-23T22:19:59.799Z,20.18
2019-05-23T22:22:32.033Z,20.16
2019-05-23T22:25:04.612Z,20.13
2019-05-23T22:27:36.586Z,20.10
2019-05-23T22:30:08.780Z,19.98
2019-05-23T22:32:40.715Z,19.98
2019-05-23T22:35:14.187Z,20.12
2019-05-23T22:37:46.210Z,20.14
2019-05-23T22:40:18.205Z,20.13
2019-05-23T22:42:50.192Z,20.13
2019-05-23T22:45:23.572Z,20.13
2019-05-23T22:47:55.354Z,20.11
2019-05-23T22:50:27.182Z,20.11
2019-05-23T22:52:59.184Z,20.10
2019-05-23T22:55:31.649Z,20.06
2019-05-23T22:58:03.462Z,20.05
2019-05-23T23:00:39.659Z,20.01
2019-05-23T23:03:12.462Z,20.01
2019-05-23T23:05:44.430Z,20.00
2019-05-23T23:08:16.793Z,20.00
2019-05-23T23:10:48.751Z,20.00
2019-05-23T23:13:20.556Z,19.98
2019-05-23T23:15:52.684Z,19.98
2019-05-23T23:18:24.850Z,19.96
2019-05-23T23:20:56.735Z,19.92
2019-05-23T23:23:28.554Z,19.90
2019-05-23T23:26:00.677Z,19.90
2019-05-23T23:28:32.826Z,19.90
2019-05-23T23:31:05.102Z,19.86
2019-05-23T23:33:37.075Z,19.86
2019-05-23T23:36:08.976Z,19.71
2019-05-23T23:38:40.733Z,19.71
2019-05-23T23:41:12.552Z,19.80
2019-05-23T23:43:58.695Z,19.73
2019-05-23T23:46:36.576Z,19.74
2019-05-23T23:49:26.739Z,19.66
2019-05-23T23:52:16.335Z,19.66
2019-05-23T23:55:05.882Z,19.61
2019-05-23T23:57:55.375Z,19.58
